sensor_id;sensor_type;location;lat;lon;timestamp;temperature;humidity
7296;DHT22;40758;54.038;11.684;2022-11-20T00:01:44;2.30;99.90
7296;DHT22;40758;54.038;11.684;2022-11-20T00:04:14;2.30;99.90
7296;DHT22;40758;54.038;11.684;2022-11-20T00:06:44;2.30;99.90
7296;DHT22;40758;54.038;11.684;2022-11-20T00:09:15;2.30;99.90
7296;DHT22;40758;54.038;11.684;2022-11-20T00:11:44;2.30;99.90
7296;DHT22;40758;54.038;11.684;2022-11-20T00:14:16;2.20;99.90
7296;DHT22;40758;54.038;11.684;2022-11-20T00:16:45;2.20;99.90
7296;DHT22;40758;54.038;11.684;2022-11-20T00:19:14;2.20;99.90
7296;DHT22;40758;54.038;11.684;2022-11-20T00:21:46;2.20;99.90
7296;DHT22;40758;54.038;11.684;2022-11-20T00:24:17;2.20;99.90
7296;DHT22;40758;54.038;11.684;2022-11-20T00:26:49;2.20;99.90
7296;DHT22;40758;54.038;11.684;2022-11-20T00:29:18;2.20;99.90
7296;DHT22;40758;54.038;11.684;2022-11-20T00:31:50;2.10;99.90
7296;DHT22;40758;54.038;11.684;2022-11-20T00:34:26;2.10;99.90
7296;DHT22;40758;54.038;11.684;2022-11-20T00:36:57;2.10;99.90
7296;DHT22;40758;54.038;11.684;2022-11-20T00:39:28;2.00;99.90
7296;DHT22;40758;54.038;11.684;2022-11-20T00:41:57;2.00;99.90
7296;DHT22;40758;54.038;11.684;2022-11-20T00:44:27;2.00;99.90
7296;DHT22;40758;54.038;11.684;2022-11-20T00:46:56;2.00;99.90
7296;DHT22;40758;54.038;11.684;2022-11-20T00:49:25;2.00;99.90
7296;DHT22;40758;54.038;11.684;2022-11-20T00:51:54;1.90;99.90
7296;DHT22;40758;54.038;11.684;2022-11-20T00:54:25;1.90;99.90
7296;DHT22;40758;54.038;11.684;2022-11-20T00:56:54;1.90;99.90
7296;DHT22;40758;54.038;11.684;2022-11-20T00:59:23;1.90;99.90
7296;DHT22;40758;54.038;11.684;2022-11-20T01:01:52;1.90;99.90
7296;DHT22;40758;54.038;11.684;2022-11-20T01:04:21;1.90;99.90
7296;DHT22;40758;54.038;11.684;2022-11-20T01:06:50;1.80;99.90
7296;DHT22;40758;54.038;11.684;2022-11-20T01:09:22;1.90;99.90
7296;DHT22;40758;54.038;11.684;2022-11-20T01:11:53;1.80;99.90
7296;DHT22;40758;54.038;11.684;2022-11-20T01:14:23;1.90;99.90
7296;DHT22;40758;54.038;11.684;2022-11-20T01:16:53;1.90;99.90
7296;DHT22;40758;54.038;11.684;2022-11-20T01:19:22;1.80;99.90
7296;DHT22;40758;54.038;11.684;2022-11-20T01:21:53;1.70;99.90
7296;DHT22;40758;54.038;11.684;2022-11-20T01:24:23;1.60;99.90
7296;DHT22;40758;54.038;11.684;2022-11-20T01:27:05;1.60;99.90
7296;DHT22;40758;54.038;11.684;2022-11-20T01:29:35;1.60;99.90
7296;DHT22;40758;54.038;11.684;2022-11-20T01:32:06;1.60;99.90
7296;DHT22;40758;54.038;11.684;2022-11-20T01:34:43;1.60;99.90
7296;DHT22;40758;54.038;11.684;2022-11-20T01:37:15;1.60;99.90
7296;DHT22;40758;54.038;11.684;2022-11-20T01:39:47;1.60;99.90
7296;DHT22;40758;54.038;11.684;2022-11-20T01:42:21;1.70;99.90
7296;DHT22;40758;54.038;11.684;2022-11-20T01:48:18;1.70;99.90
7296;DHT22;40758;54.038;11.684;2022-11-20T01:50:51;1.70;99.90
7296;DHT22;40758;54.038;11.684;2022-11-20T01:53:27;1.70;99.90
7296;DHT22;40758;54.038;11.684;2022-11-20T01:56:01;1.70;99.90
7296;DHT22;40758;54.038;11.684;2022-11-20T01:58:37;1.70;99.90
7296;DHT22;40758;54.038;11.684;2022-11-20T02:01:14;1.70;99.90
7296;DHT22;40758;54.038;11.684;2022-11-20T02:03:44;1.70;99.90
7296;DHT22;40758;54.038;11.684;2022-11-20T02:06:17;1.80;99.90
7296;DHT22;40758;54.038;11.684;2022-11-20T02:08:51;1.90;99.90
7296;DHT22;40758;54.038;11.684;2022-11-20T02:11:20;1.80;99.90
7296;DHT22;40758;54.038;11.684;2022-11-20T02:13:51;1.80;99.90
7296;DHT22;40758;54.038;11.684;2022-11-20T02:16:22;1.70;99.90
7296;DHT22;40758;54.038;11.684;2022-11-20T02:19:00;1.80;99.90
7296;DHT22;40758;54.038;11.684;2022-11-20T02:21:35;1.80;99.90
7296;DHT22;40758;54.038;11.684;2022-11-20T02:24:12;1.80;99.90
7296;DHT22;40758;54.038;11.684;2022-11-20T02:26:47;1.80;99.90
7296;DHT22;40758;54.038;11.684;2022-11-20T02:29:24;1.80;99.90
7296;DHT22;40758;54.038;11.684;2022-11-20T02:31:56;1.80;99.90
7296;DHT22;40758;54.038;11.684;2022-11-20T02:34:32;1.70;99.90
7296;DHT22;40758;54.038;11.684;2022-11-20T02:37:04;1.60;99.90
7296;DHT22;40758;54.038;11.684;2022-11-20T02:39:34;1.60;99.90
7296;DHT22;40758;54.038;11.684;2022-11-20T02:42:04;1.50;99.90
7296;DHT22;40758;54.038;11.684;2022-11-20T02:44:34;1.50;99.90
7296;DHT22;40758;54.038;11.684;2022-11-20T02:47:03;1.50;99.90
7296;DHT22;40758;54.038;11.684;2022-11-20T02:49:32;1.70;99.90
7296;DHT22;40758;54.038;11.684;2022-11-20T02:52:01;1.70;99.90
7296;DHT22;40758;54.038;11.684;2022-11-20T02:54:31;1.70;99.90
7296;DHT22;40758;54.038;11.684;2022-11-20T02:57:02;1.60;99.90
7296;DHT22;40758;54.038;11.684;2022-11-20T02:59:57;1.70;99.90
7296;DHT22;40758;54.038;11.684;2022-11-20T03:02:34;1.80;99.90
7296;DHT22;40758;54.038;11.684;2022-11-20T03:05:03;1.80;99.90
7296;DHT22;40758;54.038;11.684;2022-11-20T03:07:35;1.70;99.90
7296;DHT22;40758;54.038;11.684;2022-11-20T03:10:05;1.70;99.90
7296;DHT22;40758;54.038;11.684;2022-11-20T03:12:37;1.70;99.90
7296;DHT22;40758;54.038;11.684;2022-11-20T03:15:09;1.60;99.90
7296;DHT22;40758;54.038;11.684;2022-11-20T03:17:44;1.50;99.90
7296;DHT22;40758;54.038;11.684;2022-11-20T03:20:13;1.50;99.90
7296;DHT22;40758;54.038;11.684;2022-11-20T03:22:46;1.40;99.90
7296;DHT22;40758;54.038;11.684;2022-11-20T03:25:15;1.40;99.90
7296;DHT22;40758;54.038;11.684;2022-11-20T03:27:45;1.40;99.90
7296;DHT22;40758;54.038;11.684;2022-11-20T03:30:16;1.40;99.90
7296;DHT22;40758;54.038;11.684;2022-11-20T03:32:45;1.50;99.90
7296;DHT22;40758;54.038;11.684;2022-11-20T03:35:14;1.50;99.90
7296;DHT22;40758;54.038;11.684;2022-11-20T03:37:47;1.70;99.90
7296;DHT22;40758;54.038;11.684;2022-11-20T03:40:20;1.70;99.90
7296;DHT22;40758;54.038;11.684;2022-11-20T03:42:54;1.70;99.90
7296;DHT22;40758;54.038;11.684;2022-11-20T03:45:23;1.60;99.90
7296;DHT22;40758;54.038;11.684;2022-11-20T03:47:52;1.60;99.90
7296;DHT22;40758;54.038;11.684;2022-11-20T03:50:21;1.60;99.90
7296;DHT22;40758;54.038;11.684;2022-11-20T03:52:51;1.60;99.90
7296;DHT22;40758;54.038;11.684;2022-11-20T03:55:19;1.60;99.90
7296;DHT22;40758;54.038;11.684;2022-11-20T03:57:49;1.60;99.90
7296;DHT22;40758;54.038;11.684;2022-11-20T04:00:20;1.60;99.90
7296;DHT22;40758;54.038;11.684;2022-11-20T04:02:53;1.60;99.90
7296;DHT22;40758;54.038;11.684;2022-11-20T04:05:25;1.60;99.90
7296;DHT22;40758;54.038;11.684;2022-11-20T04:07:56;1.60;99.90
7296;DHT22;40758;54.038;11.684;2022-11-20T04:10:26;1.60;99.90
7296;DHT22;40758;54.038;11.684;2022-11-20T04:13:03;1.60;99.90
7296;DHT22;40758;54.038;11.684;2022-11-20T04:15:40;1.60;99.90
7296;DHT22;40758;54.038;11.684;2022-11-20T04:18:14;1.60;99.90
7296;DHT22;40758;54.038;11.684;2022-11-20T04:20:42;1.60;99.90
7296;DHT22;40758;54.038;11.684;2022-11-20T04:23:12;1.60;99.90
7296;DHT22;40758;54.038;11.684;2022-11-20T04:25:40;1.60;99.90
7296;DHT22;40758;54.038;11.684;2022-11-20T04:28:09;1.60;99.90
7296;DHT22;40758;54.038;11.684;2022-11-20T04:30:39;1.60;99.90
7296;DHT22;40758;54.038;11.684;2022-11-20T04:33:09;1.60;99.90
7296;DHT22;40758;54.038;11.684;2022-11-20T04:35:38;1.50;99.90
7296;DHT22;40758;54.038;11.684;2022-11-20T04:38:16;1.50;99.90
7296;DHT22;40758;54.038;11.684;2022-11-20T04:40:48;1.50;99.90
7296;DHT22;40758;54.038;11.684;2022-11-20T04:43:17;1.50;99.90
7296;DHT22;40758;54.038;11.684;2022-11-20T04:45:56;1.60;99.90
7296;DHT22;40758;54.038;11.684;2022-11-20T04:48:29;1.60;99.90
7296;DHT22;40758;54.038;11.684;2022-11-20T04:51:12;1.60;99.90
7296;DHT22;40758;54.038;11.684;2022-11-20T04:53:47;1.60;99.90
7296;DHT22;40758;54.038;11.684;2022-11-20T04:56:19;1.60;99.90
7296;DHT22;40758;54.038;11.684;2022-11-20T04:58:50;1.60;99.90
7296;DHT22;40758;54.038;11.684;2022-11-20T05:01:22;1.60;99.90
7296;DHT22;40758;54.038;11.684;2022-11-20T05:03:56;1.60;99.90
7296;DHT22;40758;54.038;11.684;2022-11-20T05:06:28;1.60;99.90
7296;DHT22;40758;54.038;11.684;2022-11-20T05:08:57;1.60;99.90
7296;DHT22;40758;54.038;11.684;2022-11-20T05:11:26;1.60;99.90
7296;DHT22;40758;54.038;11.684;2022-11-20T05:13:58;1.60;99.90
7296;DHT22;40758;54.038;11.684;2022-11-20T05:16:29;1.60;99.90
7296;DHT22;40758;54.038;11.684;2022-11-20T05:18:58;1.60;99.90
7296;DHT22;40758;54.038;11.684;2022-11-20T05:21:29;1.60;99.90
7296;DHT22;40758;54.038;11.684;2022-11-20T05:24:05;1.70;99.90
7296;DHT22;40758;54.038;11.684;2022-11-20T05:26:39;1.80;99.90
7296;DHT22;40758;54.038;11.684;2022-11-20T05:29:10;1.80;99.90
7296;DHT22;40758;54.038;11.684;2022-11-20T05:31:55;1.80;99.90
7296;DHT22;40758;54.038;11.684;2022-11-20T05:34:35;1.80;99.90
7296;DHT22;40758;54.038;11.684;2022-11-20T05:37:04;1.80;99.90
7296;DHT22;40758;54.038;11.684;2022-11-20T05:39:36;1.90;99.90
7296;DHT22;40758;54.038;11.684;2022-11-20T05:42:06;1.90;99.90
7296;DHT22;40758;54.038;11.684;2022-11-20T05:44:52;1.80;99.90
7296;DHT22;40758;54.038;11.684;2022-11-20T05:47:22;1.90;99.90
7296;DHT22;40758;54.038;11.684;2022-11-20T05:49:55;1.90;99.90
7296;DHT22;40758;54.038;11.684;2022-11-20T05:52:33;1.90;99.90
7296;DHT22;40758;54.038;11.684;2022-11-20T05:55:07;2.00;99.90
7296;DHT22;40758;54.038;11.684;2022-11-20T05:57:37;2.00;99.90
7296;DHT22;40758;54.038;11.684;2022-11-20T06:00:07;2.00;99.90
7296;DHT22;40758;54.038;11.684;2022-11-20T06:02:41;1.90;99.90
7296;DHT22;40758;54.038;11.684;2022-11-20T06:05:10;1.90;99.90
7296;DHT22;40758;54.038;11.684;2022-11-20T06:07:39;1.90;99.90
7296;DHT22;40758;54.038;11.684;2022-11-20T06:10:11;2.00;99.90
7296;DHT22;40758;54.038;11.684;2022-11-20T06:12:41;2.00;99.90
7296;DHT22;40758;54.038;11.684;2022-11-20T06:15:12;2.10;99.90
7296;DHT22;40758;54.038;11.684;2022-11-20T06:17:42;2.10;99.90
7296;DHT22;40758;54.038;11.684;2022-11-20T06:20:14;2.10;99.90
7296;DHT22;40758;54.038;11.684;2022-11-20T06:22:52;2.10;99.90
7296;DHT22;40758;54.038;11.684;2022-11-20T06:25:22;2.00;99.90
7296;DHT22;40758;54.038;11.684;2022-11-20T06:27:51;2.00;99.90
7296;DHT22;40758;54.038;11.684;2022-11-20T06:30:21;1.90;99.90
7296;DHT22;40758;54.038;11.684;2022-11-20T06:32:54;1.80;99.90
7296;DHT22;40758;54.038;11.684;2022-11-20T06:35:23;1.90;99.90
7296;DHT22;40758;54.038;11.684;2022-11-20T06:38:02;1.90;99.90
7296;DHT22;40758;54.038;11.684;2022-11-20T06:40:40;1.90;99.90
7296;DHT22;40758;54.038;11.684;2022-11-20T06:43:10;1.90;99.90
7296;DHT22;40758;54.038;11.684;2022-11-20T06:46:00;1.90;99.90
7296;DHT22;40758;54.038;11.684;2022-11-20T06:48:39;1.90;99.90
7296;DHT22;40758;54.038;11.684;2022-11-20T06:51:13;1.90;99.90
7296;DHT22;40758;54.038;11.684;2022-11-20T06:54:05;1.90;99.90
7296;DHT22;40758;54.038;11.684;2022-11-20T06:56:35;1.90;99.90
7296;DHT22;40758;54.038;11.684;2022-11-20T06:59:04;1.90;99.90
7296;DHT22;40758;54.038;11.684;2022-11-20T07:01:34;1.90;99.90
7296;DHT22;40758;54.038;11.684;2022-11-20T07:04:05;1.90;99.90
7296;DHT22;40758;54.038;11.684;2022-11-20T07:06:43;1.90;99.90
7296;DHT22;40758;54.038;11.684;2022-11-20T07:09:22;1.90;99.90
7296;DHT22;40758;54.038;11.684;2022-11-20T07:11:51;1.90;99.90
7296;DHT22;40758;54.038;11.684;2022-11-20T07:14:21;1.90;99.90
7296;DHT22;40758;54.038;11.684;2022-11-20T07:16:54;1.90;99.90
7296;DHT22;40758;54.038;11.684;2022-11-20T07:19:24;1.90;99.90
7296;DHT22;40758;54.038;11.684;2022-11-20T07:21:53;1.90;99.90
7296;DHT22;40758;54.038;11.684;2022-11-20T07:24:23;1.90;99.90
7296;DHT22;40758;54.038;11.684;2022-11-20T07:27:07;1.90;99.90
7296;DHT22;40758;54.038;11.684;2022-11-20T07:29:37;1.90;99.90
7296;DHT22;40758;54.038;11.684;2022-11-20T07:32:06;2.00;99.90
7296;DHT22;40758;54.038;11.684;2022-11-20T07:34:43;2.00;99.90
7296;DHT22;40758;54.038;11.684;2022-11-20T07:37:12;2.10;99.90
7296;DHT22;40758;54.038;11.684;2022-11-20T07:39:42;2.10;99.90
7296;DHT22;40758;54.038;11.684;2022-11-20T07:42:25;2.10;99.90
7296;DHT22;40758;54.038;11.684;2022-11-20T07:44:53;2.20;99.90
7296;DHT22;40758;54.038;11.684;2022-11-20T07:47:28;2.20;99.90
7296;DHT22;40758;54.038;11.684;2022-11-20T07:50:05;2.20;99.90
7296;DHT22;40758;54.038;11.684;2022-11-20T07:52:36;2.30;99.90
7296;DHT22;40758;54.038;11.684;2022-11-20T07:55:14;2.30;99.90
7296;DHT22;40758;54.038;11.684;2022-11-20T07:57:54;2.30;99.90
7296;DHT22;40758;54.038;11.684;2022-11-20T08:00:26;2.30;99.90
7296;DHT22;40758;54.038;11.684;2022-11-20T08:02:55;2.30;99.90
7296;DHT22;40758;54.038;11.684;2022-11-20T08:05:26;2.40;99.90
7296;DHT22;40758;54.038;11.684;2022-11-20T08:07:54;2.40;99.90
7296;DHT22;40758;54.038;11.684;2022-11-20T08:10:24;2.40;99.90
7296;DHT22;40758;54.038;11.684;2022-11-20T08:12:54;2.40;99.90
7296;DHT22;40758;54.038;11.684;2022-11-20T08:16:05;2.40;99.90
7296;DHT22;40758;54.038;11.684;2022-11-20T08:18:35;2.40;99.90
7296;DHT22;40758;54.038;11.684;2022-11-20T08:21:14;2.50;99.90
7296;DHT22;40758;54.038;11.684;2022-11-20T08:23:46;2.50;99.90
7296;DHT22;40758;54.038;11.684;2022-11-20T08:26:15;2.60;99.90
7296;DHT22;40758;54.038;11.684;2022-11-20T08:28:44;2.60;99.90
7296;DHT22;40758;54.038;11.684;2022-11-20T08:31:13;2.60;99.90
7296;DHT22;40758;54.038;11.684;2022-11-20T08:33:52;2.70;99.90
7296;DHT22;40758;54.038;11.684;2022-11-20T08:36:37;2.70;99.90
7296;DHT22;40758;54.038;11.684;2022-11-20T08:39:06;2.70;99.90
7296;DHT22;40758;54.038;11.684;2022-11-20T08:41:35;2.80;99.90
7296;DHT22;40758;54.038;11.684;2022-11-20T08:44:08;2.80;99.90
7296;DHT22;40758;54.038;11.684;2022-11-20T08:46:41;2.80;99.90
7296;DHT22;40758;54.038;11.684;2022-11-20T08:49:14;2.70;99.90
7296;DHT22;40758;54.038;11.684;2022-11-20T08:51:45;2.70;99.90
7296;DHT22;40758;54.038;11.684;2022-11-20T08:54:37;2.70;99.90
7296;DHT22;40758;54.038;11.684;2022-11-20T08:57:07;2.70;99.90
7296;DHT22;40758;54.038;11.684;2022-11-20T08:59:39;2.80;99.90
7296;DHT22;40758;54.038;11.684;2022-11-20T09:02:28;2.80;99.90
7296;DHT22;40758;54.038;11.684;2022-11-20T09:04:57;2.70;99.90
7296;DHT22;40758;54.038;11.684;2022-11-20T09:07:30;2.70;99.90
7296;DHT22;40758;54.038;11.684;2022-11-20T09:09:59;2.70;99.90
7296;DHT22;40758;54.038;11.684;2022-11-20T09:12:48;2.80;99.90
7296;DHT22;40758;54.038;11.684;2022-11-20T09:15:19;2.80;99.90
7296;DHT22;40758;54.038;11.684;2022-11-20T09:17:52;2.80;99.90
7296;DHT22;40758;54.038;11.684;2022-11-20T09:20:21;2.90;99.90
7296;DHT22;40758;54.038;11.684;2022-11-20T09:22:52;2.90;99.90
7296;DHT22;40758;54.038;11.684;2022-11-20T09:25:22;3.00;99.90
7296;DHT22;40758;54.038;11.684;2022-11-20T09:27:55;3.00;99.90
7296;DHT22;40758;54.038;11.684;2022-11-20T09:30:24;3.20;99.90
7296;DHT22;40758;54.038;11.684;2022-11-20T09:32:54;3.20;99.90
7296;DHT22;40758;54.038;11.684;2022-11-20T09:35:32;3.40;99.90
7296;DHT22;40758;54.038;11.684;2022-11-20T09:38:13;3.60;99.90
7296;DHT22;40758;54.038;11.684;2022-11-20T09:40:49;3.60;99.90
7296;DHT22;40758;54.038;11.684;2022-11-20T09:43:39;3.60;99.90
7296;DHT22;40758;54.038;11.684;2022-11-20T09:46:23;3.30;99.90
7296;DHT22;40758;54.038;11.684;2022-11-20T09:49:09;3.10;99.90
7296;DHT22;40758;54.038;11.684;2022-11-20T09:51:59;3.20;99.90
7296;DHT22;40758;54.038;11.684;2022-11-20T09:54:36;3.10;99.90
7296;DHT22;40758;54.038;11.684;2022-11-20T09:57:11;3.10;99.90
7296;DHT22;40758;54.038;11.684;2022-11-20T09:59:48;3.50;99.90
7296;DHT22;40758;54.038;11.684;2022-11-20T10:02:39;4.00;99.90
7296;DHT22;40758;54.038;11.684;2022-11-20T10:05:17;4.70;99.90
7296;DHT22;40758;54.038;11.684;2022-11-20T10:07:52;5.00;99.90
7296;DHT22;40758;54.038;11.684;2022-11-20T10:10:31;4.90;99.90
7296;DHT22;40758;54.038;11.684;2022-11-20T10:13:27;5.20;99.90
7296;DHT22;40758;54.038;11.684;2022-11-20T10:16:18;4.90;99.90
7296;DHT22;40758;54.038;11.684;2022-11-20T10:19:06;4.50;99.90
7296;DHT22;40758;54.038;11.684;2022-11-20T10:21:56;4.10;99.90
7296;DHT22;40758;54.038;11.684;2022-11-20T10:24:44;4.80;99.90
7296;DHT22;40758;54.038;11.684;2022-11-20T10:30:46;6.50;99.90
7296;DHT22;40758;54.038;11.684;2022-11-20T10:33:28;7.80;99.90
7296;DHT22;40758;54.038;11.684;2022-11-20T10:36:28;7.80;99.90
7296;DHT22;40758;54.038;11.684;2022-11-20T10:39:06;7.40;99.90
7296;DHT22;40758;54.038;11.684;2022-11-20T10:41:48;6.80;99.90
7296;DHT22;40758;54.038;11.684;2022-11-20T10:44:35;5.90;99.90
7296;DHT22;40758;54.038;11.684;2022-11-20T10:47:25;5.00;99.90
7296;DHT22;40758;54.038;11.684;2022-11-20T10:50:03;4.50;99.90
7296;DHT22;40758;54.038;11.684;2022-11-20T10:52:59;4.40;99.90
7296;DHT22;40758;54.038;11.684;2022-11-20T10:55:53;4.40;99.90
7296;DHT22;40758;54.038;11.684;2022-11-20T10:58:35;4.40;99.90
7296;DHT22;40758;54.038;11.684;2022-11-20T11:01:14;4.40;99.90
7296;DHT22;40758;54.038;11.684;2022-11-20T11:04:01;4.30;99.90
7296;DHT22;40758;54.038;11.684;2022-11-20T11:06:47;4.20;99.90
7296;DHT22;40758;54.038;11.684;2022-11-20T11:09:46;4.00;99.90
7296;DHT22;40758;54.038;11.684;2022-11-20T11:12:25;3.90;99.90
7296;DHT22;40758;54.038;11.684;2022-11-20T11:15:14;4.00;99.90
7296;DHT22;40758;54.038;11.684;2022-11-20T11:17:54;4.10;99.90
7296;DHT22;40758;54.038;11.684;2022-11-20T11:20:25;4.20;99.90
7296;DHT22;40758;54.038;11.684;2022-11-20T11:23:22;4.30;99.90
7296;DHT22;40758;54.038;11.684;2022-11-20T11:26:00;4.40;99.90
7296;DHT22;40758;54.038;11.684;2022-11-20T11:28:59;4.50;99.90
7296;DHT22;40758;54.038;11.684;2022-11-20T11:31:34;4.50;99.90
7296;DHT22;40758;54.038;11.684;2022-11-20T11:34:15;4.40;99.90
7296;DHT22;40758;54.038;11.684;2022-11-20T11:36:57;4.50;99.90
7296;DHT22;40758;54.038;11.684;2022-11-20T11:39:33;4.60;99.90
7296;DHT22;40758;54.038;11.684;2022-11-20T11:42:15;4.70;99.90
7296;DHT22;40758;54.038;11.684;2022-11-20T11:44:51;4.40;99.90
7296;DHT22;40758;54.038;11.684;2022-11-20T11:47:43;4.20;99.90
7296;DHT22;40758;54.038;11.684;2022-11-20T11:50:18;4.10;99.90
7296;DHT22;40758;54.038;11.684;2022-11-20T11:53:03;4.00;99.90
7296;DHT22;40758;54.038;11.684;2022-11-20T11:55:42;4.00;99.90
7296;DHT22;40758;54.038;11.684;2022-11-20T11:58:24;3.90;99.90
7296;DHT22;40758;54.038;11.684;2022-11-20T12:01:26;3.70;99.90
7296;DHT22;40758;54.038;11.684;2022-11-20T12:04:08;3.50;99.90
7296;DHT22;40758;54.038;11.684;2022-11-20T12:06:50;3.40;99.90
7296;DHT22;40758;54.038;11.684;2022-11-20T12:09:56;3.50;99.90
7296;DHT22;40758;54.038;11.684;2022-11-20T12:13:00;3.50;99.90
7296;DHT22;40758;54.038;11.684;2022-11-20T12:15:46;3.60;99.90
7296;DHT22;40758;54.038;11.684;2022-11-20T12:18:20;3.60;99.90
7296;DHT22;40758;54.038;11.684;2022-11-20T12:21:05;3.60;99.90
7296;DHT22;40758;54.038;11.684;2022-11-20T12:24:16;3.70;99.90
7296;DHT22;40758;54.038;11.684;2022-11-20T12:30:33;4.20;99.90
7296;DHT22;40758;54.038;11.684;2022-11-20T12:33:45;4.30;99.90
7296;DHT22;40758;54.038;11.684;2022-11-20T12:36:38;4.40;99.90
7296;DHT22;40758;54.038;11.684;2022-11-20T12:39:33;4.70;99.90
7296;DHT22;40758;54.038;11.684;2022-11-20T12:42:22;4.90;99.90
7296;DHT22;40758;54.038;11.684;2022-11-20T12:49:08;4.60;99.90
7296;DHT22;40758;54.038;11.684;2022-11-20T12:51:52;4.40;99.90
7296;DHT22;40758;54.038;11.684;2022-11-20T12:55:27;4.30;99.90
7296;DHT22;40758;54.038;11.684;2022-11-20T12:58:10;4.10;99.90
7296;DHT22;40758;54.038;11.684;2022-11-20T13:00:54;4.00;99.90
7296;DHT22;40758;54.038;11.684;2022-11-20T13:03:39;4.30;99.90
7296;DHT22;40758;54.038;11.684;2022-11-20T13:06:17;4.50;99.90
7296;DHT22;40758;54.038;11.684;2022-11-20T13:08:52;4.60;99.90
7296;DHT22;40758;54.038;11.684;2022-11-20T13:11:27;4.80;99.90
7296;DHT22;40758;54.038;11.684;2022-11-20T13:14:33;4.80;99.90
7296;DHT22;40758;54.038;11.684;2022-11-20T13:17:13;4.60;99.90
7296;DHT22;40758;54.038;11.684;2022-11-20T13:19:52;4.40;99.90
7296;DHT22;40758;54.038;11.684;2022-11-20T13:22:47;4.20;99.90
7296;DHT22;40758;54.038;11.684;2022-11-20T13:25:28;4.20;99.90
7296;DHT22;40758;54.038;11.684;2022-11-20T13:28:28;4.30;99.90
7296;DHT22;40758;54.038;11.684;2022-11-20T13:31:02;4.30;99.90
7296;DHT22;40758;54.038;11.684;2022-11-20T13:33:33;4.20;99.90
7296;DHT22;40758;54.038;11.684;2022-11-20T13:36:21;4.10;99.90
7296;DHT22;40758;54.038;11.684;2022-11-20T13:38:54;3.90;99.90
7296;DHT22;40758;54.038;11.684;2022-11-20T13:41:26;3.60;99.90
7296;DHT22;40758;54.038;11.684;2022-11-20T13:44:05;3.50;99.90
7296;DHT22;40758;54.038;11.684;2022-11-20T13:46:42;3.40;99.90
7296;DHT22;40758;54.038;11.684;2022-11-20T13:49:18;3.30;99.90
7296;DHT22;40758;54.038;11.684;2022-11-20T13:51:56;3.30;99.90
7296;DHT22;40758;54.038;11.684;2022-11-20T13:55:13;3.40;99.90
7296;DHT22;40758;54.038;11.684;2022-11-20T13:58:05;3.50;99.90
7296;DHT22;40758;54.038;11.684;2022-11-20T14:00:55;3.60;99.90
7296;DHT22;40758;54.038;11.684;2022-11-20T14:03:34;3.60;99.90
7296;DHT22;40758;54.038;11.684;2022-11-20T14:06:41;3.60;99.90
7296;DHT22;40758;54.038;11.684;2022-11-20T14:09:34;3.60;99.90
7296;DHT22;40758;54.038;11.684;2022-11-20T14:12:20;3.50;99.90
7296;DHT22;40758;54.038;11.684;2022-11-20T14:14:59;3.40;99.90
7296;DHT22;40758;54.038;11.684;2022-11-20T14:17:40;3.30;99.90
7296;DHT22;40758;54.038;11.684;2022-11-20T14:20:49;3.20;99.90
7296;DHT22;40758;54.038;11.684;2022-11-20T14:23:28;3.20;99.90
7296;DHT22;40758;54.038;11.684;2022-11-20T14:26:02;3.30;99.90
7296;DHT22;40758;54.038;11.684;2022-11-20T14:28:31;3.30;99.90
7296;DHT22;40758;54.038;11.684;2022-11-20T14:31:00;3.20;99.90
7296;DHT22;40758;54.038;11.684;2022-11-20T14:34:15;3.20;99.90
7296;DHT22;40758;54.038;11.684;2022-11-20T14:37:12;3.10;99.90
7296;DHT22;40758;54.038;11.684;2022-11-20T14:39:53;3.00;99.90
7296;DHT22;40758;54.038;11.684;2022-11-20T14:42:43;3.00;99.90
7296;DHT22;40758;54.038;11.684;2022-11-20T14:45:25;3.00;99.90
7296;DHT22;40758;54.038;11.684;2022-11-20T14:47:57;3.00;99.90
7296;DHT22;40758;54.038;11.684;2022-11-20T14:50:48;2.90;99.90
7296;DHT22;40758;54.038;11.684;2022-11-20T14:53:24;2.80;99.90
7296;DHT22;40758;54.038;11.684;2022-11-20T14:56:00;2.60;99.90
7296;DHT22;40758;54.038;11.684;2022-11-20T14:58:31;2.50;99.90
7296;DHT22;40758;54.038;11.684;2022-11-20T15:01:34;2.40;99.90
7296;DHT22;40758;54.038;11.684;2022-11-20T15:04:27;2.30;99.90
7296;DHT22;40758;54.038;11.684;2022-11-20T15:07:07;2.20;99.90
7296;DHT22;40758;54.038;11.684;2022-11-20T15:10:02;2.10;99.90
7296;DHT22;40758;54.038;11.684;2022-11-20T15:12:35;1.90;99.90
7296;DHT22;40758;54.038;11.684;2022-11-20T15:15:11;1.70;99.90
7296;DHT22;40758;54.038;11.684;2022-11-20T15:17:47;1.60;99.90
7296;DHT22;40758;54.038;11.684;2022-11-20T15:20:18;1.50;99.90
7296;DHT22;40758;54.038;11.684;2022-11-20T15:22:47;1.40;99.90
7296;DHT22;40758;54.038;11.684;2022-11-20T15:25:29;1.40;99.90
7296;DHT22;40758;54.038;11.684;2022-11-20T15:28:16;1.50;99.90
7296;DHT22;40758;54.038;11.684;2022-11-20T15:34:26;1.60;99.90
7296;DHT22;40758;54.038;11.684;2022-11-20T15:37:04;1.60;99.90
7296;DHT22;40758;54.038;11.684;2022-11-20T15:39:35;1.60;99.90
7296;DHT22;40758;54.038;11.684;2022-11-20T15:46:36;1.50;99.90
7296;DHT22;40758;54.038;11.684;2022-11-20T15:49:30;1.40;99.90
7296;DHT22;40758;54.038;11.684;2022-11-20T15:52:08;1.40;99.90
7296;DHT22;40758;54.038;11.684;2022-11-20T15:55:19;1.30;99.90
7296;DHT22;40758;54.038;11.684;2022-11-20T15:58:59;1.20;99.90
7296;DHT22;40758;54.038;11.684;2022-11-20T16:01:44;1.10;99.90
7296;DHT22;40758;54.038;11.684;2022-11-20T16:05:18;0.80;99.90
7296;DHT22;40758;54.038;11.684;2022-11-20T16:08:10;0.70;99.90
7296;DHT22;40758;54.038;11.684;2022-11-20T16:11:21;0.70;99.90
7296;DHT22;40758;54.038;11.684;2022-11-20T16:22:06;0.50;99.90
7296;DHT22;40758;54.038;11.684;2022-11-20T16:24:53;0.50;99.90
7296;DHT22;40758;54.038;11.684;2022-11-20T16:27:35;0.50;99.90
7296;DHT22;40758;54.038;11.684;2022-11-20T16:30:18;0.50;99.90
7296;DHT22;40758;54.038;11.684;2022-11-20T16:32:55;0.50;99.90
7296;DHT22;40758;54.038;11.684;2022-11-20T16:35:29;0.60;99.90
7296;DHT22;40758;54.038;11.684;2022-11-20T16:38:05;0.60;99.90
7296;DHT22;40758;54.038;11.684;2022-11-20T16:40:53;0.70;99.90
7296;DHT22;40758;54.038;11.684;2022-11-20T16:44:14;0.70;99.90
7296;DHT22;40758;54.038;11.684;2022-11-20T16:46:59;0.80;99.90
7296;DHT22;40758;54.038;11.684;2022-11-20T16:49:31;0.90;99.90
7296;DHT22;40758;54.038;11.684;2022-11-20T16:52:03;1.00;99.90
7296;DHT22;40758;54.038;11.684;2022-11-20T16:54:37;1.20;99.90
7296;DHT22;40758;54.038;11.684;2022-11-20T16:57:07;1.30;99.90
7296;DHT22;40758;54.038;11.684;2022-11-20T16:59:51;1.60;99.90
7296;DHT22;40758;54.038;11.684;2022-11-20T17:02:37;1.80;99.90
7296;DHT22;40758;54.038;11.684;2022-11-20T17:08:25;2.00;99.90
7296;DHT22;40758;54.038;11.684;2022-11-20T17:11:05;2.10;99.90
7296;DHT22;40758;54.038;11.684;2022-11-20T17:13:35;2.20;99.90
7296;DHT22;40758;54.038;11.684;2022-11-20T17:16:09;2.20;99.90
7296;DHT22;40758;54.038;11.684;2022-11-20T17:18:42;2.20;99.90
7296;DHT22;40758;54.038;11.684;2022-11-20T17:21:24;2.20;99.90
7296;DHT22;40758;54.038;11.684;2022-11-20T17:24:12;2.30;99.90
7296;DHT22;40758;54.038;11.684;2022-11-20T17:26:51;2.30;99.90